createdAt,value
2018-08-04T00:00:22.100Z,101595.26
2018-08-04T00:02:51.621Z,101604.98
2018-08-04T00:05:21.093Z,101603.02
2018-08-04T00:07:50.404Z,101600.23
2018-08-04T00:10:21.425Z,101590.04
2018-08-04T00:12:51.899Z,101581.44
2018-08-04T00:15:21.423Z,101583.38
2018-08-04T00:17:51.153Z,101577.23
2018-08-04T00:20:20.727Z,101564.30
2018-08-04T00:22:49.901Z,101571.67
2018-08-04T00:25:19.564Z,101568.46
2018-08-04T00:27:48.994Z,101570.44
2018-08-04T00:30:18.383Z,101572.20
2018-08-04T00:32:47.751Z,101570.77
2018-08-04T00:35:17.395Z,101567.38
2018-08-04T00:37:46.806Z,101573.37
2018-08-04T00:40:16.431Z,101568.82
2018-08-04T00:42:46.060Z,101566.60
2018-08-04T00:45:15.560Z,101570.41
2018-08-04T00:47:45.040Z,101567.66
2018-08-04T00:50:14.655Z,101568.19
2018-08-04T00:52:44.026Z,101561.14
2018-08-04T00:55:13.615Z,101422.81
2018-08-04T00:57:43.420Z,101553.56
2018-08-04T01:00:13.103Z,101551.58
2018-08-04T01:02:42.705Z,101556.97
2018-08-04T01:05:12.518Z,101550.18
2018-08-04T01:07:41.916Z,101546.48
2018-08-04T01:10:11.747Z,101536.27
2018-08-04T01:12:41.438Z,101534.81
2018-08-04T01:15:10.809Z,101543.73
2018-08-04T01:17:40.264Z,101529.39
2018-08-04T01:20:09.945Z,101526.60
2018-08-04T01:22:39.478Z,101525.69
2018-08-04T01:25:09.031Z,101527.84
2018-08-04T01:27:38.455Z,101522.30
2018-08-04T01:30:07.893Z,101522.93
2018-08-04T01:32:37.488Z,101524.91
2018-08-04T01:35:07.210Z,101531.08
2018-08-04T01:37:36.464Z,101524.81
2018-08-04T01:40:06.916Z,101531.53
2018-08-04T01:42:36.849Z,101529.00
2018-08-04T01:45:06.586Z,101521.60
2018-08-04T01:47:36.252Z,101526.18
2018-08-04T01:50:06.053Z,101529.11
2018-08-04T01:52:35.299Z,101525.90
2018-08-04T01:55:04.685Z,101524.38
2018-08-04T01:57:34.412Z,101528.82
2018-08-04T02:00:03.972Z,101520.92
2018-08-04T02:02:33.356Z,101517.52
2018-08-04T02:05:03.303Z,101523.15
2018-08-04T02:07:32.552Z,101515.36
2018-08-04T02:10:01.988Z,101512.55
2018-08-04T02:12:31.767Z,101525.47
2018-08-04T02:15:01.206Z,101517.02
2018-08-04T02:17:30.719Z,101507.63
2018-08-04T02:20:00.508Z,101511.58
2018-08-04T02:22:30.168Z,101514.97
2018-08-04T02:24:59.622Z,101505.59
2018-08-04T02:27:29.230Z,101507.04
2018-08-04T02:29:58.503Z,101509.61
2018-08-04T02:32:27.935Z,101505.03
2018-08-04T02:34:57.906Z,101493.80
2018-08-04T02:37:27.456Z,101499.33
2018-08-04T02:39:56.837Z,101494.33
2018-08-04T02:42:26.746Z,101495.78
2018-08-04T02:44:56.204Z,101490.56
2018-08-04T02:47:25.578Z,101493.88
2018-08-04T02:49:55.195Z,101497.54
2018-08-04T02:52:24.556Z,101501.09
2018-08-04T02:54:54.156Z,101497.81
2018-08-04T02:57:24.107Z,101470.59
2018-08-04T02:59:53.563Z,101490.41
2018-08-04T03:02:22.981Z,101478.44
2018-08-04T03:04:52.799Z,101477.81
2018-08-04T03:07:22.199Z,101477.39
2018-08-04T03:09:51.506Z,101471.75
2018-08-04T03:12:21.044Z,101472.25
2018-08-04T03:14:50.824Z,101472.20
2018-08-04T03:17:20.044Z,101463.02
2018-08-04T03:19:49.877Z,101469.08
2018-08-04T03:22:19.241Z,101461.78
2018-08-04T03:24:48.665Z,101458.19
2018-08-04T03:27:18.452Z,101458.32
2018-08-04T03:29:47.848Z,101467.58
2018-08-04T03:32:17.092Z,101466.05
2018-08-04T03:34:46.807Z,101465.52
2018-08-04T03:37:16.196Z,101445.70
2018-08-04T03:39:45.552Z,101456.17
2018-08-04T03:42:15.249Z,101455.72
2018-08-04T03:44:44.572Z,101457.27
2018-08-04T03:47:13.974Z,101455.42
2018-08-04T03:49:43.945Z,101458.78
2018-08-04T03:52:13.567Z,101464.67
2018-08-04T03:54:42.896Z,101456.87
2018-08-04T03:57:12.847Z,101450.58
2018-08-04T03:59:42.279Z,101456.10
2018-08-04T04:02:11.634Z,101453.14
2018-08-04T04:04:41.735Z,101447.52
2018-08-04T04:07:11.198Z,101449.38
2018-08-04T04:09:40.524Z,101447.77
2018-08-04T04:12:10.220Z,101443.86
2018-08-04T04:14:39.582Z,101449.66
2018-08-04T04:17:08.978Z,101449.88
2018-08-04T04:19:38.585Z,101445.12
2018-08-04T04:22:08.227Z,101450.27
2018-08-04T04:24:37.593Z,101441.60
2018-08-04T04:27:07.414Z,101443.05
2018-08-04T04:29:36.838Z,101449.45
2018-08-04T04:32:06.536Z,101449.31
2018-08-04T04:34:35.919Z,101445.02
2018-08-04T04:37:05.306Z,101447.17
2018-08-04T04:39:34.866Z,101435.23
2018-08-04T04:42:05.845Z,101436.49
2018-08-04T04:44:35.242Z,101439.77
2018-08-04T04:47:05.107Z,101444.11
2018-08-04T04:49:34.951Z,101452.68
2018-08-04T05:05:15.699Z,101449.34
2018-08-04T05:07:45.230Z,101453.89
2018-08-04T05:10:14.755Z,101465.34
2018-08-04T05:12:44.627Z,101462.28
2018-08-04T05:15:13.919Z,101465.87
2018-08-04T05:17:43.324Z,101457.14
2018-08-04T05:20:13.337Z,101452.80
2018-08-04T05:22:42.775Z,101451.28
2018-08-04T05:25:12.084Z,101453.75
2018-08-04T05:27:42.254Z,101457.95
2018-08-04T05:30:11.852Z,101457.88
2018-08-04T05:32:41.092Z,101450.16
2018-08-04T05:35:10.914Z,101450.20
2018-08-04T05:37:40.267Z,101439.45
2018-08-04T05:40:09.745Z,101444.20
2018-08-04T05:42:39.406Z,101438.58
2018-08-04T05:45:09.738Z,101437.66
2018-08-04T05:47:39.319Z,101445.90
2018-08-04T05:50:09.093Z,101444.63
2018-08-04T05:52:38.497Z,101448.05
2018-08-04T05:55:08.005Z,101452.59
2018-08-04T05:57:37.607Z,101457.20
2018-08-04T06:00:08.214Z,101457.31
2018-08-04T06:02:37.819Z,101458.33
2018-08-04T06:05:07.608Z,101453.30
2018-08-04T06:07:36.963Z,101459.64
2018-08-04T06:10:06.667Z,101454.53
2018-08-04T06:12:36.431Z,101458.44
2018-08-04T06:15:06.640Z,101453.25
2018-08-04T06:17:36.163Z,101466.77
2018-08-04T06:20:05.903Z,101470.86
2018-08-04T06:22:35.468Z,101473.66
2018-08-04T06:25:04.687Z,101470.02
2018-08-04T06:27:34.505Z,101467.34
2018-08-04T06:30:03.921Z,101467.95
2018-08-04T06:32:33.333Z,101467.31
2018-08-04T06:35:03.461Z,101463.37
2018-08-04T06:37:32.660Z,101466.68
2018-08-04T06:40:01.962Z,101460.69
2018-08-04T06:42:31.621Z,101454.88
2018-08-04T06:45:01.036Z,101457.09
2018-08-04T06:47:30.493Z,101458.78
2018-08-04T06:50:00.173Z,101453.95
2018-08-04T06:52:29.583Z,101459.06
2018-08-04T06:54:59.158Z,101455.41
2018-08-04T06:57:29.169Z,101459.41
2018-08-04T06:59:58.629Z,101459.59
2018-08-04T07:02:28.310Z,101459.12
2018-08-04T07:04:58.063Z,101465.87
2018-08-04T07:07:27.433Z,101466.63
2018-08-04T07:09:57.011Z,101467.09
2018-08-04T07:12:26.677Z,101469.94
2018-08-04T07:14:56.286Z,101475.88
2018-08-04T07:17:25.897Z,101462.05
2018-08-04T07:19:55.629Z,101465.19
2018-08-04T07:22:25.847Z,101464.38
2018-08-04T07:24:55.684Z,101471.47
2018-08-04T07:27:25.826Z,101468.45
2018-08-04T07:29:55.257Z,101457.11
2018-08-04T07:32:24.614Z,101456.61
2018-08-04T07:34:54.562Z,101456.53
2018-08-04T07:37:23.971Z,101459.98
2018-08-04T07:39:53.468Z,101340.81
2018-08-04T07:42:23.179Z,101455.27
2018-08-04T07:44:52.537Z,101451.85
2018-08-04T07:47:21.971Z,101449.45
2018-08-04T07:49:51.646Z,101454.53
2018-08-04T07:52:21.341Z,101453.55
2018-08-04T07:54:50.695Z,101447.04
2018-08-04T07:57:20.426Z,101448.97
2018-08-04T07:59:50.124Z,101448.90
2018-08-04T08:02:19.514Z,101440.50
2018-08-04T08:04:49.268Z,101441.38
2018-08-04T08:07:23.642Z,101450.91
2018-08-04T08:09:54.124Z,101451.34
2018-08-04T08:12:23.800Z,101443.52
2018-08-04T08:14:53.227Z,101457.02
2018-08-04T08:17:23.109Z,101446.14
2018-08-04T08:19:52.477Z,101444.41
2018-08-04T08:22:27.719Z,101449.23
2018-08-04T08:24:57.172Z,101449.91
2018-08-04T08:27:26.788Z,101458.35
2018-08-04T08:29:56.658Z,101454.36
2018-08-04T08:32:27.210Z,101455.52
2018-08-04T08:34:56.611Z,101455.06
2018-08-04T08:37:26.855Z,101464.05
2018-08-04T08:39:56.352Z,101463.63
2018-08-04T08:42:26.054Z,101463.72
2018-08-04T08:44:55.778Z,101470.30
2018-08-04T08:47:25.293Z,101468.97
2018-08-04T08:49:54.594Z,101473.60
2018-08-04T08:52:24.830Z,101470.86
2018-08-04T08:54:54.305Z,101465.77
2018-08-04T08:57:23.782Z,101465.77
2018-08-04T08:59:53.397Z,101458.89
2018-08-04T09:02:22.811Z,101464.23
2018-08-04T09:04:52.263Z,101462.48
2018-08-04T09:07:22.377Z,101465.81
2018-08-04T09:09:51.910Z,101460.61
2018-08-04T09:12:21.220Z,101466.38
2018-08-04T09:14:51.117Z,101464.27
2018-08-04T09:17:20.354Z,101467.43
2018-08-04T09:19:49.861Z,101467.24
2018-08-04T09:22:19.678Z,101473.65
2018-08-04T09:24:48.920Z,101484.22
2018-08-04T09:27:18.327Z,101480.08
2018-08-04T09:29:47.850Z,101474.34
2018-08-04T09:32:17.280Z,101476.28
2018-08-04T09:34:46.504Z,101477.27
2018-08-04T09:37:16.210Z,101482.69
2018-08-04T09:39:45.555Z,101486.20
2018-08-04T09:42:14.965Z,101491.24
2018-08-04T09:44:44.856Z,101488.25
2018-08-04T09:47:14.276Z,101493.67
2018-08-04T09:49:43.575Z,101484.09
2018-08-04T09:52:13.340Z,101492.42
2018-08-04T09:54:42.791Z,101492.31
2018-08-04T09:57:12.209Z,101493.73
2018-08-04T09:59:41.890Z,101488.86
2018-08-04T10:02:12.191Z,101474.91
2018-08-04T10:04:41.899Z,101484.33
2018-08-04T10:07:11.719Z,101487.89
2018-08-04T10:09:41.024Z,101479.81
2018-08-04T10:12:10.084Z,101476.81
2018-08-04T10:14:39.969Z,101471.11
2018-08-04T10:17:09.333Z,101477.59
2018-08-04T10:19:38.752Z,101479.41
2018-08-04T10:22:08.585Z,101482.95
2018-08-04T10:24:37.940Z,101468.48
2018-08-04T10:27:07.562Z,101478.30
2018-08-04T10:29:37.632Z,101477.37
2018-08-04T10:32:07.546Z,101475.28
2018-08-04T10:34:36.828Z,101467.23
2018-08-04T10:37:06.457Z,101472.07
2018-08-04T10:39:35.601Z,101481.76
2018-08-04T10:42:04.990Z,101475.92
2018-08-04T10:44:34.772Z,101468.08
2018-08-04T10:47:04.282Z,101471.58
2018-08-04T10:49:33.719Z,101467.63
2018-08-04T10:52:03.540Z,101475.92
2018-08-04T10:54:33.293Z,101468.25
2018-08-04T10:57:02.483Z,101473.07
2018-08-04T10:59:32.261Z,101479.44
2018-08-04T11:02:01.802Z,101477.81
2018-08-04T11:04:30.979Z,101466.92
2018-08-04T11:07:00.850Z,101474.95
2018-08-04T11:09:30.369Z,101490.81
2018-08-04T11:11:59.956Z,101483.39
2018-08-04T11:14:29.628Z,101484.07
2018-08-04T11:16:59.778Z,101492.70
2018-08-04T11:19:29.378Z,101493.57
2018-08-04T11:21:59.015Z,101483.84
2018-08-04T11:24:28.843Z,101480.56
2018-08-04T11:26:58.439Z,101489.38
2018-08-04T11:29:28.244Z,101480.87
2018-08-04T11:31:57.787Z,101479.91
2018-08-04T11:34:27.595Z,101465.72
2018-08-04T11:36:57.149Z,101476.64
2018-08-04T11:39:26.727Z,101485.75
2018-08-04T11:41:56.078Z,101486.25
2018-08-04T11:44:25.737Z,101475.59
2018-08-04T11:46:55.436Z,101474.98
2018-08-04T11:49:24.796Z,101475.04
2018-08-04T11:51:54.409Z,101471.80
2018-08-04T11:54:24.103Z,101472.12
2018-08-04T11:56:53.486Z,101450.50
2018-08-04T11:59:23.371Z,101469.67
2018-08-04T12:01:52.987Z,101474.24
2018-08-04T12:04:22.432Z,101472.54
2018-08-04T12:06:52.042Z,101455.77
2018-08-04T12:09:21.447Z,101463.66
2018-08-04T12:11:50.866Z,101461.94
2018-08-04T12:14:20.303Z,101467.81
2018-08-04T12:16:49.898Z,101475.31
2018-08-04T12:19:19.184Z,101471.55
2018-08-04T12:21:48.817Z,101470.44
2018-08-04T12:24:18.236Z,101462.78
2018-08-04T12:26:47.569Z,101463.02
2018-08-04T12:29:16.992Z,101468.59
2018-08-04T12:31:46.540Z,101459.22
2018-08-04T12:34:15.667Z,101459.04
2018-08-04T12:36:45.291Z,101471.28
2018-08-04T12:39:14.748Z,101460.94
2018-08-04T12:41:44.113Z,101461.61
2018-08-04T12:44:13.663Z,101460.69
2018-08-04T12:46:43.010Z,101468.40
2018-08-04T12:49:12.291Z,101463.72
2018-08-04T12:51:41.930Z,101461.98
2018-08-04T12:54:11.599Z,101457.82
2018-08-04T12:56:41.247Z,101458.80
2018-08-04T12:59:11.208Z,101458.48
2018-08-04T13:01:40.709Z,101451.53
2018-08-04T13:04:10.506Z,101454.50
2018-08-04T13:06:40.224Z,101453.05
2018-08-04T13:09:11.383Z,101460.05
2018-08-04T13:11:40.894Z,101444.48
2018-08-04T13:14:10.357Z,101444.45
2018-08-04T13:16:39.796Z,101444.97
2018-08-04T13:19:09.694Z,101444.25
2018-08-04T13:21:38.960Z,101445.19
2018-08-04T13:24:08.733Z,101443.51
2018-08-04T13:26:38.470Z,101442.69
2018-08-04T13:29:08.011Z,101438.02
2018-08-04T13:31:37.795Z,101444.66
2018-08-04T13:34:07.518Z,101437.44
2018-08-04T13:36:36.786Z,101445.30
2018-08-04T13:39:09.333Z,101436.95
2018-08-04T13:41:39.270Z,101431.67
2018-08-04T13:44:08.922Z,101433.36
2018-08-04T13:46:39.158Z,101436.81
2018-08-04T13:49:08.668Z,101435.30
2018-08-04T13:51:37.969Z,101427.14
2018-08-04T13:54:08.304Z,101431.03
2018-08-04T13:56:37.789Z,101429.66
2018-08-04T13:59:07.544Z,101434.72
2018-08-04T14:01:37.378Z,101434.84
2018-08-04T14:04:08.431Z,101439.91
2018-08-04T14:06:38.348Z,101438.92
2018-08-04T14:09:09.331Z,101426.27
2018-08-04T14:11:39.010Z,101426.59
2018-08-04T14:14:08.674Z,101428.52
2018-08-04T14:16:38.088Z,101438.66
2018-08-04T14:19:07.750Z,101430.07
2018-08-04T14:21:37.187Z,101432.91
2018-08-04T14:24:06.700Z,101433.11
2018-08-04T14:26:36.136Z,101427.88
2018-08-04T14:29:05.925Z,101314.64
2018-08-04T14:31:35.328Z,101417.55
2018-08-04T14:34:06.168Z,101422.84
2018-08-04T14:36:35.802Z,101426.93
2018-08-04T14:39:08.368Z,101428.97
2018-08-04T14:41:38.499Z,101422.47
2018-08-04T14:44:08.178Z,101425.87
2018-08-04T14:46:37.993Z,101425.17
2018-08-04T14:49:07.599Z,101429.84
2018-08-04T14:51:37.649Z,101425.80
2018-08-04T14:54:07.732Z,101426.00
2018-08-04T14:56:38.783Z,101428.33
2018-08-04T14:59:08.400Z,101422.76
2018-08-04T15:01:38.198Z,101427.47
2018-08-04T15:04:08.335Z,101426.61
2018-08-04T15:06:37.746Z,101425.16
2018-08-04T15:09:09.790Z,101415.56
2018-08-04T15:11:42.512Z,101411.09
2018-08-04T15:14:12.231Z,101276.98
2018-08-04T15:16:41.645Z,101415.36
2018-08-04T15:19:11.085Z,101405.05
2018-08-04T15:21:40.777Z,101408.92
2018-08-04T15:24:10.143Z,101406.19
2018-08-04T15:26:39.579Z,101402.73
2018-08-04T15:29:09.738Z,101395.47
2018-08-04T15:31:39.194Z,101398.30
2018-08-04T15:34:08.646Z,101404.31
2018-08-04T15:36:38.581Z,101414.45
2018-08-04T15:39:09.939Z,101406.51
2018-08-04T15:41:39.634Z,101404.08
2018-08-04T15:44:09.366Z,101411.86
2018-08-04T15:46:39.207Z,101406.36
2018-08-04T15:49:09.047Z,101406.28
2018-08-04T15:51:38.333Z,101408.43
2018-08-04T15:54:07.616Z,101401.75
2018-08-04T15:57:39.875Z,101400.95
2018-08-04T16:00:10.544Z,101391.72
2018-08-04T16:02:40.071Z,101389.17
2018-08-04T16:05:10.113Z,101398.31
2018-08-04T16:07:39.618Z,101394.98
2018-08-04T16:10:09.066Z,101396.80
2018-08-04T16:12:38.977Z,101392.92
2018-08-04T16:15:08.514Z,101401.71
2018-08-04T16:17:37.921Z,101398.91
2018-08-04T16:20:11.767Z,101397.62
2018-08-04T16:22:44.828Z,101397.03
2018-08-04T16:25:16.975Z,101395.17
2018-08-04T16:27:46.583Z,101399.59
2018-08-04T16:30:15.985Z,101408.42
2018-08-04T16:32:47.016Z,101403.23
2018-08-04T16:35:17.017Z,101404.05
2018-08-04T16:37:46.087Z,101399.47
2018-08-04T16:40:15.385Z,101404.48
2018-08-04T16:42:44.863Z,101407.94
2018-08-04T16:45:16.767Z,101399.08
2018-08-04T16:47:46.009Z,101404.53
2018-08-04T16:50:15.360Z,101404.05
2018-08-04T16:52:44.772Z,101397.14
2018-08-04T16:55:14.506Z,101395.68
2018-08-04T16:57:43.894Z,101401.50
2018-08-04T17:00:13.781Z,101398.38
2018-08-04T17:02:43.110Z,101395.25
2018-08-04T17:05:12.479Z,101396.44
2018-08-04T17:07:42.607Z,101392.30
2018-08-04T17:10:12.059Z,101386.53
2018-08-04T17:12:41.600Z,101391.34
2018-08-04T17:15:11.257Z,101397.20
2018-08-04T17:17:40.663Z,101400.34
2018-08-04T17:20:10.842Z,101395.52
2018-08-04T17:22:40.648Z,101402.23
2018-08-04T17:25:13.109Z,101398.63
2018-08-04T17:27:44.387Z,101391.03
2018-08-04T17:30:13.980Z,101398.88
2018-08-04T17:32:43.781Z,101396.32
2018-08-04T17:35:13.429Z,101396.90
2018-08-04T17:37:43.057Z,101393.13
2018-08-04T17:40:12.935Z,101394.69
2018-08-04T17:42:42.364Z,101397.66
2018-08-04T17:45:12.050Z,101395.23
2018-08-04T17:47:42.134Z,101390.94
2018-08-04T17:50:11.527Z,101384.09
2018-08-04T17:52:40.901Z,101384.75
2018-08-04T17:55:10.668Z,101367.20
2018-08-04T17:57:40.143Z,101379.01
2018-08-04T18:00:09.745Z,101380.34
2018-08-04T18:02:39.440Z,101374.66
2018-08-04T18:05:09.615Z,101378.86
2018-08-04T18:07:39.082Z,101375.34
2018-08-04T18:10:08.933Z,101370.14
2018-08-04T18:12:38.334Z,101373.62
2018-08-04T18:15:07.886Z,101367.17
2018-08-04T18:17:37.820Z,101368.66
2018-08-04T18:20:07.441Z,101369.72
2018-08-04T18:22:37.025Z,101365.02
2018-08-04T18:25:07.147Z,101270.32
2018-08-04T18:27:36.868Z,101358.89
2018-08-04T18:30:37.553Z,101360.30
2018-08-04T18:33:07.126Z,101356.74
2018-08-04T18:35:36.633Z,101361.38
2018-08-04T18:38:06.298Z,101354.84
2018-08-04T18:40:35.775Z,101353.97
2018-08-04T18:43:05.616Z,101353.70
2018-08-04T18:45:35.372Z,101357.98
2018-08-04T18:48:05.186Z,101353.19
2018-08-04T18:50:34.634Z,101352.53
2018-08-04T18:53:04.724Z,101350.06
2018-08-04T18:55:33.881Z,101342.83
2018-08-04T18:58:03.417Z,101344.73
2018-08-04T19:00:33.318Z,101343.67
2018-08-04T19:03:03.435Z,101342.50
2018-08-04T19:05:32.869Z,101338.33
2018-08-04T19:08:02.841Z,101345.67
2018-08-04T19:10:32.510Z,101342.45
2018-08-04T19:13:01.801Z,101342.91
2018-08-04T19:15:31.445Z,101341.50
2018-08-04T19:18:00.829Z,101343.38
2018-08-04T19:20:30.073Z,101337.67
2018-08-04T19:23:00.147Z,101346.63
2018-08-04T19:25:29.698Z,101351.64
2018-08-04T19:27:58.804Z,101351.41
2018-08-04T19:30:28.607Z,101354.51
2018-08-04T19:32:57.769Z,101354.78
2018-08-04T19:35:27.240Z,101349.80
2018-08-04T19:37:57.372Z,101351.09
2018-08-04T19:40:26.467Z,101351.60
2018-08-04T19:42:55.573Z,101346.55
2018-08-04T19:45:25.315Z,101342.33
2018-08-04T19:47:54.910Z,101350.49
2018-08-04T19:50:24.316Z,101343.49
2018-08-04T19:52:54.452Z,101342.23
2018-08-04T19:55:23.883Z,101348.31
2018-08-04T19:57:53.203Z,101350.41
2018-08-04T20:00:22.668Z,101338.97
2018-08-04T20:02:52.325Z,101335.56
2018-08-04T20:05:21.642Z,101334.92
2018-08-04T20:07:51.334Z,101345.41
2018-08-04T20:10:21.109Z,101347.93
2018-08-04T20:12:50.500Z,101342.95
2018-08-04T20:15:19.973Z,101345.47
2018-08-04T20:17:49.442Z,101341.84
2018-08-04T20:20:19.075Z,101353.56
2018-08-04T20:22:48.913Z,101342.91
2018-08-04T20:25:18.461Z,101342.42
2018-08-04T20:27:47.894Z,101328.94
2018-08-04T20:30:17.508Z,101349.22
2018-08-04T20:32:47.281Z,101346.05
2018-08-04T20:35:16.667Z,101346.22
2018-08-04T20:37:46.290Z,101346.34
2018-08-04T20:40:15.863Z,101344.17
2018-08-04T20:42:45.288Z,101342.48
2018-08-04T20:45:15.037Z,101349.06
2018-08-04T20:47:44.677Z,101346.45
2018-08-04T20:50:14.461Z,101342.16
2018-08-04T20:52:44.077Z,101340.17
2018-08-04T20:55:13.658Z,101338.03
2018-08-04T20:57:43.165Z,101341.68
2018-08-04T21:00:12.919Z,101337.28
2018-08-04T21:02:42.484Z,101330.17
2018-08-04T21:05:12.127Z,101329.40
2018-08-04T21:07:41.808Z,101325.41
2018-08-04T21:10:11.596Z,101325.71
2018-08-04T21:12:41.097Z,101322.25
2018-08-04T21:15:10.740Z,101319.69
2018-08-04T21:17:40.301Z,101305.33
2018-08-04T21:20:09.790Z,101313.84
2018-08-04T21:22:39.392Z,101309.67
2018-08-04T21:25:09.018Z,101298.61
2018-08-04T21:27:38.501Z,101292.33
2018-08-04T21:30:08.746Z,101271.30
2018-08-04T21:32:38.335Z,101292.88
2018-08-04T21:35:07.766Z,101296.87
2018-08-04T21:37:37.394Z,101294.47
2018-08-04T21:40:07.509Z,101294.47
2018-08-04T21:42:36.762Z,101292.70
2018-08-04T21:45:06.803Z,101287.78
2018-08-04T21:47:36.306Z,101282.01
2018-08-04T21:50:05.648Z,101281.31
2018-08-04T21:52:35.725Z,101286.28
2018-08-04T21:55:05.398Z,101283.18
2018-08-04T21:57:34.754Z,101286.36
2018-08-04T22:00:04.688Z,101286.80
2018-08-04T22:02:34.175Z,101275.05
2018-08-04T22:05:03.496Z,101279.59
2018-08-04T22:07:45.324Z,101281.64
2018-08-04T22:10:15.227Z,101278.55
2018-08-04T22:12:45.005Z,101280.73
2018-08-04T22:15:15.566Z,101277.45
2018-08-04T22:17:45.221Z,101276.84
2018-08-04T22:20:16.349Z,101271.86
2018-08-04T22:22:45.827Z,101267.16
2018-08-04T22:25:17.486Z,101268.17
2018-08-04T22:27:47.054Z,101265.59
2018-08-04T22:30:17.629Z,101259.83
2018-08-04T22:32:47.535Z,101267.39
2018-08-04T22:35:17.065Z,101260.66
2018-08-04T22:37:46.696Z,101266.52
2018-08-04T22:40:16.783Z,101267.47
2018-08-04T22:42:46.363Z,101264.86
2018-08-04T22:46:07.148Z,101264.78
2018-08-04T22:48:36.722Z,101262.62
2018-08-04T22:51:06.601Z,101264.20
2018-08-04T22:53:36.514Z,101266.77
2018-08-04T22:56:06.090Z,101237.80
2018-08-04T22:58:35.685Z,101264.67
2018-08-04T23:01:06.158Z,101267.30
2018-08-04T23:03:35.589Z,101264.20
2018-08-04T23:06:05.419Z,101255.59
2018-08-04T23:08:35.043Z,101257.52
2018-08-04T23:11:04.743Z,101249.16
2018-08-04T23:13:34.214Z,101247.28
2018-08-04T23:16:04.193Z,101245.36
2018-08-04T23:18:33.663Z,101244.08
2018-08-04T23:21:03.080Z,101243.97
2018-08-04T23:23:33.102Z,101238.50
2018-08-04T23:26:02.556Z,101232.52
2018-08-04T23:28:32.051Z,101238.96
2018-08-04T23:31:01.927Z,101237.80
2018-08-04T23:33:31.422Z,101244.66
2018-08-04T23:36:00.768Z,101234.91
2018-08-04T23:38:30.553Z,101237.75
2018-08-04T23:41:00.288Z,101238.33
2018-08-04T23:43:29.426Z,101245.36
2018-08-04T23:45:59.237Z,101246.10
2018-08-04T23:48:28.672Z,101239.31
2018-08-04T23:50:58.159Z,101241.98
2018-08-04T23:53:28.006Z,101243.50
2018-08-04T23:55:57.722Z,101244.84
2018-08-04T23:58:27.330Z,101233.79
